sensor_id;sensor_type;location;lat;lon;timestamp;pressure;altitude;pressure_sealevel;temperature;humidity
75460;BME280;64039;53.060;9.342;2023-04-09T00:00:33;102365.25;;;7.30;100.00
75460;BME280;64039;53.060;9.342;2023-04-09T00:02:59;102361.22;;;7.35;100.00
75460;BME280;64039;53.060;9.342;2023-04-09T00:05:24;102359.88;;;7.27;100.00
75460;BME280;64039;53.060;9.342;2023-04-09T00:07:50;102364.25;;;7.28;100.00
75460;BME280;64039;53.060;9.342;2023-04-09T00:10:15;102358.56;;;7.34;100.00
75460;BME280;64039;53.060;9.342;2023-04-09T00:12:41;102357.44;;;7.15;100.00
75460;BME280;64039;53.060;9.342;2023-04-09T00:15:07;102351.75;;;7.36;100.00
75460;BME280;64039;53.060;9.342;2023-04-09T00:17:32;102354.41;;;7.22;100.00
75460;BME280;64039;53.060;9.342;2023-04-09T00:19:58;102353.97;;;7.30;100.00
75460;BME280;64039;53.060;9.342;2023-04-09T00:22:23;102358.09;;;7.26;100.00
75460;BME280;64039;53.060;9.342;2023-04-09T00:24:49;102354.25;;;7.34;100.00
75460;BME280;64039;53.060;9.342;2023-04-09T00:27:14;102353.91;;;7.28;100.00
75460;BME280;64039;53.060;9.342;2023-04-09T00:29:40;102360.50;;;7.38;100.00
75460;BME280;64039;53.060;9.342;2023-04-09T00:32:05;102359.16;;;7.30;100.00
75460;BME280;64039;53.060;9.342;2023-04-09T00:34:31;102362.47;;;7.27;100.00
75460;BME280;64039;53.060;9.342;2023-04-09T00:36:57;102355.69;;;7.29;100.00
75460;BME280;64039;53.060;9.342;2023-04-09T00:39:22;102353.91;;;7.28;100.00
75460;BME280;64039;53.060;9.342;2023-04-09T00:41:48;102358.56;;;7.34;100.00
75460;BME280;64039;53.060;9.342;2023-04-09T00:44:13;102354.34;;;7.36;100.00
75460;BME280;64039;53.060;9.342;2023-04-09T00:46:39;102360.44;;;7.36;100.00
75460;BME280;64039;53.060;9.342;2023-04-09T00:49:04;102352.66;;;7.36;100.00
75460;BME280;64039;53.060;9.342;2023-04-09T00:51:30;102352.31;;;7.30;100.00
75460;BME280;64039;53.060;9.342;2023-04-09T00:53:57;102350.31;;;7.26;100.00
75460;BME280;64039;53.060;9.342;2023-04-09T00:56:23;102352.81;;;7.24;100.00
75460;BME280;64039;53.060;9.342;2023-04-09T00:58:49;102353.69;;;7.25;100.00
75460;BME280;64039;53.060;9.342;2023-04-09T01:01:15;102351.63;;;7.19;100.00
75460;BME280;64039;53.060;9.342;2023-04-09T01:03:40;102348.44;;;7.23;100.00
75460;BME280;64039;53.060;9.342;2023-04-09T01:06:29;102344.22;;;7.11;100.00
75460;BME280;64039;53.060;9.342;2023-04-09T01:09:05;102342.78;;;7.16;100.00
75460;BME280;64039;53.060;9.342;2023-04-09T01:12:01;102352.97;;;7.28;100.00
75460;BME280;64039;53.060;9.342;2023-04-09T01:14:53;102346.13;;;7.28;100.00
75460;BME280;64039;53.060;9.342;2023-04-09T01:17:23;102346.84;;;7.26;100.00
75460;BME280;64039;53.060;9.342;2023-04-09T01:19:58;102348.31;;;7.22;100.00
75460;BME280;64039;53.060;9.342;2023-04-09T01:22:48;102342.63;;;7.13;100.00
75460;BME280;64039;53.060;9.342;2023-04-09T01:30:38;102334.69;;;7.24;100.00
75460;BME280;64039;53.060;9.342;2023-04-09T01:33:05;102339.88;;;7.24;100.00
75460;BME280;64039;53.060;9.342;2023-04-09T01:35:30;102331.19;;;7.24;100.00
75460;BME280;64039;53.060;9.342;2023-04-09T01:37:56;102333.22;;;7.15;100.00
75460;BME280;64039;53.060;9.342;2023-04-09T01:40:23;102340.56;;;7.22;100.00
75460;BME280;64039;53.060;9.342;2023-04-09T01:42:48;102335.31;;;7.20;100.00
75460;BME280;64039;53.060;9.342;2023-04-09T01:45:15;102338.09;;;7.23;100.00
75460;BME280;64039;53.060;9.342;2023-04-09T01:47:41;102337.44;;;7.28;100.00
75460;BME280;64039;53.060;9.342;2023-04-09T01:50:07;102333.50;;;7.19;100.00
75460;BME280;64039;53.060;9.342;2023-04-09T01:52:33;102334.41;;;7.20;100.00
75460;BME280;64039;53.060;9.342;2023-04-09T01:54:59;102337.72;;;7.17;100.00
75460;BME280;64039;53.060;9.342;2023-04-09T01:57:24;102337.97;;;7.22;100.00
75460;BME280;64039;53.060;9.342;2023-04-09T01:59:50;102336.81;;;7.17;100.00
75460;BME280;64039;53.060;9.342;2023-04-09T02:02:18;102335.38;;;7.07;100.00
75460;BME280;64039;53.060;9.342;2023-04-09T02:04:50;102331.81;;;7.05;100.00
75460;BME280;64039;53.060;9.342;2023-04-09T02:07:23;102331.59;;;7.02;100.00
75460;BME280;64039;53.060;9.342;2023-04-09T02:09:52;102331.19;;;7.09;100.00
75460;BME280;64039;53.060;9.342;2023-04-09T02:12:19;102322.16;;;7.02;100.00
75460;BME280;64039;53.060;9.342;2023-04-09T02:14:50;102332.34;;;7.14;100.00
75460;BME280;64039;53.060;9.342;2023-04-09T02:17:15;102325.47;;;7.15;100.00
75460;BME280;64039;53.060;9.342;2023-04-09T02:19:43;102327.09;;;7.13;100.00
75460;BME280;64039;53.060;9.342;2023-04-09T02:22:09;102321.91;;;7.13;100.00
75460;BME280;64039;53.060;9.342;2023-04-09T02:24:35;102327.38;;;7.17;100.00
75460;BME280;64039;53.060;9.342;2023-04-09T02:27:01;102328.25;;;7.18;100.00
75460;BME280;64039;53.060;9.342;2023-04-09T02:29:27;102333.50;;;7.19;100.00
75460;BME280;64039;53.060;9.342;2023-04-09T02:31:53;102330.75;;;7.16;100.00
75460;BME280;64039;53.060;9.342;2023-04-09T02:34:19;102320.66;;;7.06;100.00
75460;BME280;64039;53.060;9.342;2023-04-09T02:36:45;102315.50;;;6.78;100.00
75460;BME280;64039;53.060;9.342;2023-04-09T02:39:10;102319.44;;;6.86;100.00
75460;BME280;64039;53.060;9.342;2023-04-09T02:41:35;102326.34;;;7.00;100.00
75460;BME280;64039;53.060;9.342;2023-04-09T02:44:01;102320.38;;;7.01;100.00
75460;BME280;64039;53.060;9.342;2023-04-09T02:46:26;102317.59;;;6.98;100.00
75460;BME280;64039;53.060;9.342;2023-04-09T02:48:52;102310.72;;;6.99;100.00
75460;BME280;64039;53.060;9.342;2023-04-09T02:51:19;102315.16;;;6.86;100.00
75460;BME280;64039;53.060;9.342;2023-04-09T02:53:44;102312.94;;;6.92;100.00
75460;BME280;64039;53.060;9.342;2023-04-09T02:56:10;102310.25;;;6.91;100.00
75460;BME280;64039;53.060;9.342;2023-04-09T02:58:35;102313.91;;;6.80;100.00
75460;BME280;64039;53.060;9.342;2023-04-09T03:01:01;102308.91;;;6.83;100.00
75460;BME280;64039;53.060;9.342;2023-04-09T03:03:26;102313.09;;;6.81;100.00
75460;BME280;64039;53.060;9.342;2023-04-09T03:05:52;102307.91;;;6.81;100.00
75460;BME280;64039;53.060;9.342;2023-04-09T03:08:17;102310.41;;;6.79;100.00
75460;BME280;64039;53.060;9.342;2023-04-09T03:10:43;102303.16;;;6.73;100.00
75460;BME280;64039;53.060;9.342;2023-04-09T03:13:08;102304.06;;;6.74;100.00
75460;BME280;64039;53.060;9.342;2023-04-09T03:15:34;102307.22;;;6.98;100.00
75460;BME280;64039;53.060;9.342;2023-04-09T03:17:59;102300.47;;;7.00;100.00
75460;BME280;64039;53.060;9.342;2023-04-09T03:20:25;102301.97;;;6.97;100.00
75460;BME280;64039;53.060;9.342;2023-04-09T03:22:50;102299.81;;;6.89;100.00
75460;BME280;64039;53.060;9.342;2023-04-09T03:25:18;102295.31;;;6.72;100.00
75460;BME280;64039;53.060;9.342;2023-04-09T03:27:45;102298.63;;;6.84;100.00
75460;BME280;64039;53.060;9.342;2023-04-09T03:30:10;102296.44;;;6.90;100.00
75460;BME280;64039;53.060;9.342;2023-04-09T03:32:36;102292.38;;;6.81;100.00
75460;BME280;64039;53.060;9.342;2023-04-09T03:35:02;102297.66;;;6.82;100.00
75460;BME280;64039;53.060;9.342;2023-04-09T03:37:27;102303.13;;;6.87;100.00
75460;BME280;64039;53.060;9.342;2023-04-09T03:39:53;102299.41;;;6.68;100.00
75460;BME280;64039;53.060;9.342;2023-04-09T03:42:18;102301.94;;;6.82;100.00
75460;BME280;64039;53.060;9.342;2023-04-09T03:44:43;102299.19;;;6.93;100.00
75460;BME280;64039;53.060;9.342;2023-04-09T03:47:09;102301.13;;;6.83;100.00
75460;BME280;64039;53.060;9.342;2023-04-09T03:49:35;102298.75;;;6.86;100.00
75460;BME280;64039;53.060;9.342;2023-04-09T03:52:00;102294.69;;;6.76;100.00
75460;BME280;64039;53.060;9.342;2023-04-09T03:54:29;102292.56;;;6.84;100.00
75460;BME280;64039;53.060;9.342;2023-04-09T03:56:55;102291.84;;;6.86;100.00
75460;BME280;64039;53.060;9.342;2023-04-09T03:59:21;102281.50;;;6.86;100.00
75460;BME280;64039;53.060;9.342;2023-04-09T04:01:47;102291.84;;;6.86;100.00
75460;BME280;64039;53.060;9.342;2023-04-09T04:04:13;102281.41;;;6.85;100.00
75460;BME280;64039;53.060;9.342;2023-04-09T04:06:38;102289.09;;;6.83;100.00
75460;BME280;64039;53.060;9.342;2023-04-09T04:09:04;102293.28;;;6.81;100.00
75460;BME280;64039;53.060;9.342;2023-04-09T04:11:29;102292.66;;;6.85;100.00
75460;BME280;64039;53.060;9.342;2023-04-09T04:13:54;102286.84;;;6.74;100.00
75460;BME280;64039;53.060;9.342;2023-04-09T04:16:20;102290.50;;;6.78;100.00
75460;BME280;64039;53.060;9.342;2023-04-09T04:18:46;102296.31;;;6.89;100.00
75460;BME280;64039;53.060;9.342;2023-04-09T04:21:14;102302.94;;;6.84;100.00
75460;BME280;64039;53.060;9.342;2023-04-09T04:23:40;102301.06;;;6.81;100.00
75460;BME280;64039;53.060;9.342;2023-04-09T04:26:07;102305.78;;;6.88;100.00
75460;BME280;64039;53.060;9.342;2023-04-09T04:28:37;102301.63;;;6.90;100.00
75460;BME280;64039;53.060;9.342;2023-04-09T04:31:10;102303.44;;;6.78;100.00
75460;BME280;64039;53.060;9.342;2023-04-09T04:33:36;102306.41;;;6.84;100.00
75460;BME280;64039;53.060;9.342;2023-04-09T04:36:07;102302.44;;;6.76;100.00
75460;BME280;64039;53.060;9.342;2023-04-09T04:38:33;102298.63;;;6.84;100.00
75460;BME280;64039;53.060;9.342;2023-04-09T04:40:59;102304.16;;;6.75;100.00
75460;BME280;64039;53.060;9.342;2023-04-09T04:43:25;102309.41;;;6.77;100.00
75460;BME280;64039;53.060;9.342;2023-04-09T04:45:50;102311.28;;;6.65;100.00
75460;BME280;64039;53.060;9.342;2023-04-09T04:48:16;102308.41;;;6.60;100.00
75460;BME280;64039;53.060;9.342;2023-04-09T04:50:41;102311.19;;;6.63;100.00
75460;BME280;64039;53.060;9.342;2023-04-09T04:53:07;102313.50;;;6.73;100.00
75460;BME280;64039;53.060;9.342;2023-04-09T04:55:35;102313.91;;;6.80;100.00
75460;BME280;64039;53.060;9.342;2023-04-09T04:58:01;102311.63;;;6.71;100.00
75460;BME280;64039;53.060;9.342;2023-04-09T05:00:27;102308.84;;;6.68;100.00
75460;BME280;64039;53.060;9.342;2023-04-09T05:02:52;102302.28;;;6.73;100.00
75460;BME280;64039;53.060;9.342;2023-04-09T05:05:18;102307.53;;;6.74;100.00
75460;BME280;64039;53.060;9.342;2023-04-09T05:07:43;102314.22;;;6.42;100.00
75460;BME280;64039;53.060;9.342;2023-04-09T05:10:09;102317.84;;;6.59;100.00
75460;BME280;64039;53.060;9.342;2023-04-09T05:12:34;102311.72;;;6.44;100.00
75460;BME280;64039;53.060;9.342;2023-04-09T05:15:00;102310.06;;;6.59;100.00
75460;BME280;64039;53.060;9.342;2023-04-09T05:17:26;102312.94;;;6.64;100.00
75460;BME280;64039;53.060;9.342;2023-04-09T05:19:51;102315.25;;;6.59;100.00
75460;BME280;64039;53.060;9.342;2023-04-09T05:22:17;102313.81;;;6.50;100.00
75460;BME280;64039;53.060;9.342;2023-04-09T05:24:43;102315.38;;;6.48;100.00
75460;BME280;64039;53.060;9.342;2023-04-09T05:27:08;102316.44;;;6.36;100.00
75460;BME280;64039;53.060;9.342;2023-04-09T05:29:34;102312.63;;;6.44;100.00
75460;BME280;64039;53.060;9.342;2023-04-09T05:31:59;102312.50;;;6.43;100.00
75460;BME280;64039;53.060;9.342;2023-04-09T05:34:25;102312.81;;;6.48;100.00
75460;BME280;64039;53.060;9.342;2023-04-09T05:36:51;102316.00;;;6.43;100.00
75460;BME280;64039;53.060;9.342;2023-04-09T05:39:17;102317.88;;;6.46;100.00
75460;BME280;64039;53.060;9.342;2023-04-09T05:41:42;102310.75;;;6.42;100.00
75460;BME280;64039;53.060;9.342;2023-04-09T05:44:10;102322.19;;;6.32;100.00
75460;BME280;64039;53.060;9.342;2023-04-09T05:46:35;102321.34;;;6.47;100.00
75460;BME280;64039;53.060;9.342;2023-04-09T05:49:01;102318.47;;;6.55;100.00
75460;BME280;64039;53.060;9.342;2023-04-09T05:51:27;102316.72;;;6.41;100.00
75460;BME280;64039;53.060;9.342;2023-04-09T05:53:52;102320.91;;;6.39;100.00
75460;BME280;64039;53.060;9.342;2023-04-09T05:56:19;102322.19;;;6.45;100.00
75460;BME280;64039;53.060;9.342;2023-04-09T05:58:47;102325.56;;;6.44;100.00
75460;BME280;64039;53.060;9.342;2023-04-09T06:01:12;102323.56;;;6.40;100.00
75460;BME280;64039;53.060;9.342;2023-04-09T06:03:38;102323.84;;;6.45;100.00
75460;BME280;64039;53.060;9.342;2023-04-09T06:06:04;102328.09;;;6.58;100.00
75460;BME280;64039;53.060;9.342;2023-04-09T06:08:29;102322.03;;;6.57;100.00
75460;BME280;64039;53.060;9.342;2023-04-09T06:10:55;102325.44;;;6.56;100.00
75460;BME280;64039;53.060;9.342;2023-04-09T06:13:20;102326.94;;;6.53;100.00
75460;BME280;64039;53.060;9.342;2023-04-09T06:15:46;102331.53;;;6.43;100.00
75460;BME280;64039;53.060;9.342;2023-04-09T06:18:12;102325.66;;;6.46;100.00
75460;BME280;64039;53.060;9.342;2023-04-09T06:20:37;102329.00;;;6.58;100.00
75460;BME280;64039;53.060;9.342;2023-04-09T06:23:03;102332.25;;;6.69;100.00
75460;BME280;64039;53.060;9.342;2023-04-09T06:25:29;102328.59;;;6.66;100.00
75460;BME280;64039;53.060;9.342;2023-04-09T06:27:55;102325.06;;;6.79;100.00
75460;BME280;64039;53.060;9.342;2023-04-09T06:30:21;102317.47;;;6.82;100.00
75460;BME280;64039;53.060;9.342;2023-04-09T06:32:47;102328.09;;;6.86;100.00
75460;BME280;64039;53.060;9.342;2023-04-09T06:35:13;102329.28;;;6.91;100.00
75460;BME280;64039;53.060;9.342;2023-04-09T06:37:39;102326.06;;;6.96;100.00
75460;BME280;64039;53.060;9.342;2023-04-09T06:40:05;102326.63;;;7.05;100.00
75460;BME280;64039;53.060;9.342;2023-04-09T06:42:31;102331.44;;;7.14;100.00
75460;BME280;64039;53.060;9.342;2023-04-09T06:44:57;102325.09;;;7.08;100.00
75460;BME280;64039;53.060;9.342;2023-04-09T06:47:22;102325.38;;;7.13;100.00
75460;BME280;64039;53.060;9.342;2023-04-09T06:49:48;102326.28;;;7.29;100.00
75460;BME280;64039;53.060;9.342;2023-04-09T06:52:13;102326.81;;;7.23;100.00
75460;BME280;64039;53.060;9.342;2023-04-09T06:54:38;102320.75;;;7.22;100.00
75460;BME280;64039;53.060;9.342;2023-04-09T06:57:05;102334.88;;;7.43;100.00
75460;BME280;64039;53.060;9.342;2023-04-09T06:59:31;102327.19;;;7.59;100.00
75460;BME280;64039;53.060;9.342;2023-04-09T07:01:58;102333.88;;;7.70;100.00
75460;BME280;64039;53.060;9.342;2023-04-09T07:04:23;102341.28;;;7.94;100.00
75460;BME280;64039;53.060;9.342;2023-04-09T07:06:49;102340.63;;;7.98;100.00
75460;BME280;64039;53.060;9.342;2023-04-09T07:09:16;102336.41;;;8.15;100.00
75460;BME280;64039;53.060;9.342;2023-04-09T07:11:42;102342.56;;;8.17;100.00
75460;BME280;64039;53.060;9.342;2023-04-09T07:14:08;102345.72;;;8.12;100.00
75460;BME280;64039;53.060;9.342;2023-04-09T07:16:33;102347.06;;;8.05;100.00
75460;BME280;64039;53.060;9.342;2023-04-09T07:18:59;102345.19;;;8.02;100.00
75460;BME280;64039;53.060;9.342;2023-04-09T07:21:24;102348.72;;;8.19;100.00
75460;BME280;64039;53.060;9.342;2023-04-09T07:23:52;102352.06;;;8.48;100.00
75460;BME280;64039;53.060;9.342;2023-04-09T07:26:18;102352.59;;;8.74;100.00
75460;BME280;64039;53.060;9.342;2023-04-09T07:28:43;102358.41;;;8.87;100.00
75460;BME280;64039;53.060;9.342;2023-04-09T07:31:09;102355.81;;;8.87;100.00
75460;BME280;64039;53.060;9.342;2023-04-09T07:33:35;102353.06;;;8.84;100.00
75460;BME280;64039;53.060;9.342;2023-04-09T07:36:01;102357.47;;;8.85;100.00
75460;BME280;64039;53.060;9.342;2023-04-09T07:38:28;102356.88;;;8.74;99.75
75460;BME280;64039;53.060;9.342;2023-04-09T07:40:53;102347.38;;;8.91;100.00
75460;BME280;64039;53.060;9.342;2023-04-09T07:43:19;102349.06;;;8.90;99.65
75460;BME280;64039;53.060;9.342;2023-04-09T07:45:47;102341.53;;;8.95;99.14
75460;BME280;64039;53.060;9.342;2023-04-09T07:48:13;102344.06;;;8.93;99.08
75460;BME280;64039;53.060;9.342;2023-04-09T07:50:38;102342.25;;;9.09;99.23
75460;BME280;64039;53.060;9.342;2023-04-09T07:53:04;102345.75;;;9.26;98.48
75460;BME280;64039;53.060;9.342;2023-04-09T07:55:30;102349.38;;;9.30;98.06
75460;BME280;64039;53.060;9.342;2023-04-09T07:57:56;102344.03;;;9.10;96.92
75460;BME280;64039;53.060;9.342;2023-04-09T08:00:22;102345.88;;;9.29;94.61
75460;BME280;64039;53.060;9.342;2023-04-09T08:02:48;102342.66;;;9.51;95.48
75460;BME280;64039;53.060;9.342;2023-04-09T08:05:15;102340.34;;;9.39;94.79
75460;BME280;64039;53.060;9.342;2023-04-09T08:07:40;102342.59;;;9.68;93.93
75460;BME280;64039;53.060;9.342;2023-04-09T08:10:06;102340.53;;;9.97;94.00
75460;BME280;64039;53.060;9.342;2023-04-09T08:12:32;102346.69;;;10.17;92.51
75460;BME280;64039;53.060;9.342;2023-04-09T08:14:58;102342.22;;;10.32;89.67
75460;BME280;64039;53.060;9.342;2023-04-09T08:17:23;102341.41;;;10.33;90.48
75460;BME280;64039;53.060;9.342;2023-04-09T08:19:49;102344.59;;;10.28;88.78
75460;BME280;64039;53.060;9.342;2023-04-09T08:22:15;102344.03;;;10.15;87.72
75460;BME280;64039;53.060;9.342;2023-04-09T08:24:41;102342.97;;;10.12;87.78
75460;BME280;64039;53.060;9.342;2023-04-09T08:27:08;102344.78;;;9.95;89.17
75460;BME280;64039;53.060;9.342;2023-04-09T08:29:33;102338.47;;;10.07;89.36
75460;BME280;64039;53.060;9.342;2023-04-09T08:31:59;102343.56;;;10.24;89.27
75460;BME280;64039;53.060;9.342;2023-04-09T08:34:25;102342.84;;;10.45;87.73
75460;BME280;64039;53.060;9.342;2023-04-09T08:36:50;102334.88;;;10.23;87.20
75460;BME280;64039;53.060;9.342;2023-04-09T08:39:16;102336.94;;;10.13;88.47
75460;BME280;64039;53.060;9.342;2023-04-09T08:41:45;102338.91;;;10.17;89.51
75460;BME280;64039;53.060;9.342;2023-04-09T08:44:12;102341.59;;;10.00;87.99
75460;BME280;64039;53.060;9.342;2023-04-09T08:46:38;102336.13;;;10.32;88.69
75460;BME280;64039;53.060;9.342;2023-04-09T08:49:03;102337.97;;;10.34;88.03
75460;BME280;64039;53.060;9.342;2023-04-09T08:51:29;102337.75;;;10.30;87.05
75460;BME280;64039;53.060;9.342;2023-04-09T08:53:57;102338.13;;;10.37;87.50
75460;BME280;64039;53.060;9.342;2023-04-09T08:56:23;102337.50;;;10.61;86.79
75460;BME280;64039;53.060;9.342;2023-04-09T08:58:49;102333.13;;;10.42;86.59
75460;BME280;64039;53.060;9.342;2023-04-09T09:01:24;102332.75;;;10.52;86.35
75460;BME280;64039;53.060;9.342;2023-04-09T09:06:21;102333.66;;;10.92;85.25
75460;BME280;64039;53.060;9.342;2023-04-09T09:09:10;102333.09;;;10.99;83.83
75460;BME280;64039;53.060;9.342;2023-04-09T09:11:37;102340.38;;;10.67;84.80
75460;BME280;64039;53.060;9.342;2023-04-09T09:14:03;102335.72;;;10.99;83.07
75460;BME280;64039;53.060;9.342;2023-04-09T09:16:29;102329.47;;;10.96;82.78
75460;BME280;64039;53.060;9.342;2023-04-09T09:18:57;102328.44;;;11.12;83.86
75460;BME280;64039;53.060;9.342;2023-04-09T09:21:23;102330.16;;;11.32;81.22
75460;BME280;64039;53.060;9.342;2023-04-09T09:23:51;102328.72;;;11.39;81.03
75460;BME280;64039;53.060;9.342;2023-04-09T09:26:19;102323.00;;;11.48;79.77
75460;BME280;64039;53.060;9.342;2023-04-09T09:28:46;102332.09;;;11.37;79.72
75460;BME280;64039;53.060;9.342;2023-04-09T09:31:13;102328.31;;;11.30;78.62
75460;BME280;64039;53.060;9.342;2023-04-09T09:33:39;102328.59;;;11.36;77.08
75460;BME280;64039;53.060;9.342;2023-04-09T09:36:05;102325.16;;;11.58;79.77
75460;BME280;64039;53.060;9.342;2023-04-09T09:38:31;102325.16;;;11.58;75.29
75460;BME280;64039;53.060;9.342;2023-04-09T09:40:57;102335.44;;;11.55;76.96
75460;BME280;64039;53.060;9.342;2023-04-09T09:43:23;102317.97;;;11.31;77.42
75460;BME280;64039;53.060;9.342;2023-04-09T09:45:49;102318.53;;;11.24;77.77
75460;BME280;64039;53.060;9.342;2023-04-09T09:48:14;102316.16;;;11.09;76.65
75460;BME280;64039;53.060;9.342;2023-04-09T09:50:41;102315.53;;;11.36;76.35
75460;BME280;64039;53.060;9.342;2023-04-09T09:53:10;102311.94;;;11.54;76.35
75460;BME280;64039;53.060;9.342;2023-04-09T09:55:40;102319.06;;;11.58;75.56
75460;BME280;64039;53.060;9.342;2023-04-09T09:58:16;102310.66;;;11.65;76.01
75460;BME280;64039;53.060;9.342;2023-04-09T10:00:43;102312.34;;;11.86;74.76
75460;BME280;64039;53.060;9.342;2023-04-09T10:03:16;102302.25;;;11.72;71.24
75460;BME280;64039;53.060;9.342;2023-04-09T10:05:44;102302.69;;;11.20;73.60
75460;BME280;64039;53.060;9.342;2023-04-09T10:08:11;102300.00;;;11.82;71.61
75460;BME280;64039;53.060;9.342;2023-04-09T10:10:39;102304.69;;;11.90;73.80
75460;BME280;64039;53.060;9.342;2023-04-09T10:13:08;102299.94;;;12.01;72.56
75460;BME280;64039;53.060;9.342;2023-04-09T10:15:36;102292.56;;;11.91;70.71
75460;BME280;64039;53.060;9.342;2023-04-09T10:18:02;102292.22;;;12.27;69.44
75460;BME280;64039;53.060;9.342;2023-04-09T10:20:32;102287.63;;;12.21;67.28
75460;BME280;64039;53.060;9.342;2023-04-09T10:23:05;102287.16;;;12.32;67.49
75460;BME280;64039;53.060;9.342;2023-04-09T10:25:33;102290.03;;;12.38;67.87
75460;BME280;64039;53.060;9.342;2023-04-09T10:28:00;102278.19;;;12.48;65.51
75460;BME280;64039;53.060;9.342;2023-04-09T10:30:33;102272.94;;;12.72;66.51
75460;BME280;64039;53.060;9.342;2023-04-09T10:33:13;102268.47;;;12.92;67.35
75460;BME280;64039;53.060;9.342;2023-04-09T10:35:39;102267.00;;;13.00;62.93
75460;BME280;64039;53.060;9.342;2023-04-09T10:38:09;102263.13;;;12.89;64.93
75460;BME280;64039;53.060;9.342;2023-04-09T10:40:55;102263.38;;;12.71;62.83
75460;BME280;64039;53.060;9.342;2023-04-09T10:43:20;102259.59;;;12.63;62.73
75460;BME280;64039;53.060;9.342;2023-04-09T10:45:47;102268.50;;;12.69;64.73
75460;BME280;64039;53.060;9.342;2023-04-09T10:48:19;102259.16;;;13.00;65.06
75460;BME280;64039;53.060;9.342;2023-04-09T10:50:49;102255.44;;;13.19;62.25
75460;BME280;64039;53.060;9.342;2023-04-09T10:53:23;102253.59;;;12.91;62.04
75460;BME280;64039;53.060;9.342;2023-04-09T10:55:50;102254.44;;;12.90;59.14
75460;BME280;64039;53.060;9.342;2023-04-09T10:58:16;102255.63;;;13.00;59.93
75460;BME280;64039;53.060;9.342;2023-04-09T11:00:43;102256.25;;;12.93;60.59
75460;BME280;64039;53.060;9.342;2023-04-09T11:06:03;102253.16;;;13.56;60.83
75460;BME280;64039;53.060;9.342;2023-04-09T11:08:39;102245.81;;;13.73;59.29
75460;BME280;64039;53.060;9.342;2023-04-09T11:11:06;102237.78;;;13.67;58.59
75460;BME280;64039;53.060;9.342;2023-04-09T11:13:32;102238.03;;;13.75;55.45
75460;BME280;64039;53.060;9.342;2023-04-09T11:15:58;102238.13;;;14.07;56.43
75460;BME280;64039;53.060;9.342;2023-04-09T11:18:27;102244.03;;;13.99;58.98
75460;BME280;64039;53.060;9.342;2023-04-09T11:20:58;102238.25;;;14.11;54.05
75460;BME280;64039;53.060;9.342;2023-04-09T11:23:24;102233.44;;;14.25;53.92
75460;BME280;64039;53.060;9.342;2023-04-09T11:25:50;102233.34;;;14.22;52.58
75460;BME280;64039;53.060;9.342;2023-04-09T11:28:17;102223.13;;;14.63;51.95
75460;BME280;64039;53.060;9.342;2023-04-09T11:30:43;102230.31;;;14.69;52.46
75460;BME280;64039;53.060;9.342;2023-04-09T11:33:08;102224.44;;;14.48;50.78
75460;BME280;64039;53.060;9.342;2023-04-09T11:35:34;102223.44;;;14.74;51.07
75460;BME280;64039;53.060;9.342;2023-04-09T11:38:07;102228.34;;;15.31;52.84
75460;BME280;64039;53.060;9.342;2023-04-09T11:40:33;102231.50;;;14.82;54.33
75460;BME280;64039;53.060;9.342;2023-04-09T11:42:58;102234.44;;;14.94;56.09
75460;BME280;64039;53.060;9.342;2023-04-09T11:45:28;102223.50;;;14.76;55.70
75460;BME280;64039;53.060;9.342;2023-04-09T11:47:54;102227.59;;;14.66;53.06
75460;BME280;64039;53.060;9.342;2023-04-09T11:50:20;102233.06;;;14.75;56.39
75460;BME280;64039;53.060;9.342;2023-04-09T11:52:48;102230.66;;;14.83;54.42
75460;BME280;64039;53.060;9.342;2023-04-09T11:55:28;102223.41;;;14.10;54.55
75460;BME280;64039;53.060;9.342;2023-04-09T11:57:58;102226.13;;;14.45;53.70
75460;BME280;64039;53.060;9.342;2023-04-09T12:00:27;102226.97;;;14.75;53.83
75460;BME280;64039;53.060;9.342;2023-04-09T12:03:02;102227.75;;;15.06;54.60
75460;BME280;64039;53.060;9.342;2023-04-09T12:05:33;102216.75;;;15.21;53.31
75460;BME280;64039;53.060;9.342;2023-04-09T12:08:03;102218.81;;;14.99;53.90
75460;BME280;64039;53.060;9.342;2023-04-09T12:10:33;102218.13;;;14.71;53.07
75460;BME280;64039;53.060;9.342;2023-04-09T12:13:05;102219.50;;;14.26;53.87
75460;BME280;64039;53.060;9.342;2023-04-09T12:15:35;102207.44;;;14.65;52.35
75460;BME280;64039;53.060;9.342;2023-04-09T12:18:03;102209.56;;;14.46;53.48
75460;BME280;64039;53.060;9.342;2023-04-09T12:20:36;102207.88;;;14.81;54.92
75460;BME280;64039;53.060;9.342;2023-04-09T12:23:04;102215.19;;;14.60;51.65
75460;BME280;64039;53.060;9.342;2023-04-09T12:25:33;102203.78;;;14.92;53.26
75460;BME280;64039;53.060;9.342;2023-04-09T12:28:01;102209.50;;;15.11;53.10
75460;BME280;64039;53.060;9.342;2023-04-09T12:30:27;102202.94;;;14.93;53.95
75460;BME280;64039;53.060;9.342;2023-04-09T12:32:53;102197.50;;;15.57;53.75
75460;BME280;64039;53.060;9.342;2023-04-09T12:35:20;102201.97;;;15.63;51.95
75460;BME280;64039;53.060;9.342;2023-04-09T12:37:46;102195.94;;;15.65;52.94
75460;BME280;64039;53.060;9.342;2023-04-09T12:40:11;102196.72;;;15.63;52.03
75460;BME280;64039;53.060;9.342;2023-04-09T12:42:41;102195.56;;;15.50;51.72
75460;BME280;64039;53.060;9.342;2023-04-09T12:45:09;102189.59;;;15.97;52.33
75460;BME280;64039;53.060;9.342;2023-04-09T12:47:35;102189.22;;;16.19;52.49
75460;BME280;64039;53.060;9.342;2023-04-09T12:50:02;102178.22;;;15.96;50.18
75460;BME280;64039;53.060;9.342;2023-04-09T12:52:28;102182.56;;;15.94;50.77
75460;BME280;64039;53.060;9.342;2023-04-09T12:54:54;102176.63;;;16.03;50.96
75460;BME280;64039;53.060;9.342;2023-04-09T12:57:19;102187.63;;;15.85;50.92
75460;BME280;64039;53.060;9.342;2023-04-09T12:59:46;102182.88;;;15.30;51.40